sensor_id;sensor_type;location;lat;lon;timestamp;P1;durP1;ratioP1;P2;durP2;ratioP2
20844;SDS011;10583;49.084;8.646;2023-02-28T00:01:13;3.20;;;3.20;;
20844;SDS011;10583;49.084;8.646;2023-02-28T00:03:42;3.53;;;3.53;;
20844;SDS011;10583;49.084;8.646;2023-02-28T00:06:09;3.30;;;3.30;;
20844;SDS011;10583;49.084;8.646;2023-02-28T00:08:36;3.03;;;3.03;;
20844;SDS011;10583;49.084;8.646;2023-02-28T00:11:03;3.13;;;3.13;;
20844;SDS011;10583;49.084;8.646;2023-02-28T00:13:33;3.77;;;3.77;;
20844;SDS011;10583;49.084;8.646;2023-02-28T00:16:01;3.00;;;3.00;;
20844;SDS011;10583;49.084;8.646;2023-02-28T00:18:28;3.07;;;3.07;;
20844;SDS011;10583;49.084;8.646;2023-02-28T00:20:56;3.27;;;3.27;;
20844;SDS011;10583;49.084;8.646;2023-02-28T00:23:23;2.90;;;2.90;;
20844;SDS011;10583;49.084;8.646;2023-02-28T00:25:50;3.30;;;3.30;;
20844;SDS011;10583;49.084;8.646;2023-02-28T00:28:17;3.43;;;3.43;;
20844;SDS011;10583;49.084;8.646;2023-02-28T00:30:44;3.50;;;3.50;;
20844;SDS011;10583;49.084;8.646;2023-02-28T00:33:11;3.40;;;3.40;;
20844;SDS011;10583;49.084;8.646;2023-02-28T00:35:38;3.03;;;3.03;;
20844;SDS011;10583;49.084;8.646;2023-02-28T00:38:06;2.90;;;2.90;;
20844;SDS011;10583;49.084;8.646;2023-02-28T00:40:33;3.17;;;3.17;;
20844;SDS011;10583;49.084;8.646;2023-02-28T00:42:59;3.23;;;3.23;;
20844;SDS011;10583;49.084;8.646;2023-02-28T00:45:26;3.40;;;3.40;;
20844;SDS011;10583;49.084;8.646;2023-02-28T00:47:53;3.07;;;3.07;;
20844;SDS011;10583;49.084;8.646;2023-02-28T00:50:19;3.20;;;3.20;;
20844;SDS011;10583;49.084;8.646;2023-02-28T00:52:46;3.17;;;3.17;;
20844;SDS011;10583;49.084;8.646;2023-02-28T00:55:15;3.13;;;3.13;;
20844;SDS011;10583;49.084;8.646;2023-02-28T00:57:41;3.63;;;3.63;;
20844;SDS011;10583;49.084;8.646;2023-02-28T01:00:09;3.60;;;3.60;;
20844;SDS011;10583;49.084;8.646;2023-02-28T01:02:37;3.80;;;3.80;;
20844;SDS011;10583;49.084;8.646;2023-02-28T01:05:03;3.53;;;3.53;;
20844;SDS011;10583;49.084;8.646;2023-02-28T01:07:31;3.77;;;3.77;;
20844;SDS011;10583;49.084;8.646;2023-02-28T01:09:58;3.33;;;3.33;;
20844;SDS011;10583;49.084;8.646;2023-02-28T01:12:26;3.40;;;3.40;;
20844;SDS011;10583;49.084;8.646;2023-02-28T01:14:52;3.47;;;3.47;;
20844;SDS011;10583;49.084;8.646;2023-02-28T01:17:19;3.50;;;3.50;;
20844;SDS011;10583;49.084;8.646;2023-02-28T01:19:46;3.60;;;3.60;;
20844;SDS011;10583;49.084;8.646;2023-02-28T01:22:13;3.63;;;3.63;;
20844;SDS011;10583;49.084;8.646;2023-02-28T01:24:39;3.33;;;3.33;;
20844;SDS011;10583;49.084;8.646;2023-02-28T01:27:06;3.60;;;3.60;;
20844;SDS011;10583;49.084;8.646;2023-02-28T01:29:38;3.67;;;3.67;;
20844;SDS011;10583;49.084;8.646;2023-02-28T01:32:04;3.30;;;3.30;;
20844;SDS011;10583;49.084;8.646;2023-02-28T01:34:31;3.70;;;3.70;;
20844;SDS011;10583;49.084;8.646;2023-02-28T01:36:58;3.30;;;3.30;;
20844;SDS011;10583;49.084;8.646;2023-02-28T01:39:24;3.30;;;3.30;;
20844;SDS011;10583;49.084;8.646;2023-02-28T01:41:51;3.33;;;3.33;;
20844;SDS011;10583;49.084;8.646;2023-02-28T01:47:27;3.60;;;3.60;;
20844;SDS011;10583;49.084;8.646;2023-02-28T01:49:57;3.90;;;3.90;;
20844;SDS011;10583;49.084;8.646;2023-02-28T01:52:26;3.43;;;3.43;;
20844;SDS011;10583;49.084;8.646;2023-02-28T01:54:55;3.43;;;3.43;;
20844;SDS011;10583;49.084;8.646;2023-02-28T01:57:25;3.70;;;3.70;;
20844;SDS011;10583;49.084;8.646;2023-02-28T01:59:57;3.70;;;3.70;;
20844;SDS011;10583;49.084;8.646;2023-02-28T02:02:29;3.70;;;3.70;;
20844;SDS011;10583;49.084;8.646;2023-02-28T02:04:57;3.60;;;3.60;;
20844;SDS011;10583;49.084;8.646;2023-02-28T02:07:29;3.80;;;3.80;;
20844;SDS011;10583;49.084;8.646;2023-02-28T02:10:02;4.00;;;4.00;;
20844;SDS011;10583;49.084;8.646;2023-02-28T02:12:33;3.90;;;3.90;;
20844;SDS011;10583;49.084;8.646;2023-02-28T02:15:22;4.03;;;4.03;;
20844;SDS011;10583;49.084;8.646;2023-02-28T02:17:56;4.07;;;4.07;;
20844;SDS011;10583;49.084;8.646;2023-02-28T02:29:22;3.77;;;3.77;;
20844;SDS011;10583;49.084;8.646;2023-02-28T02:35:30;4.03;;;4.03;;
20844;SDS011;10583;49.084;8.646;2023-02-28T02:38:03;4.10;;;4.10;;
20844;SDS011;10583;49.084;8.646;2023-02-28T02:40:36;4.20;;;4.20;;
20844;SDS011;10583;49.084;8.646;2023-02-28T02:43:11;4.10;;;4.10;;
20844;SDS011;10583;49.084;8.646;2023-02-28T02:45:43;4.20;;;4.20;;
20844;SDS011;10583;49.084;8.646;2023-02-28T02:48:15;4.07;;;4.07;;
20844;SDS011;10583;49.084;8.646;2023-02-28T02:50:48;4.50;;;4.50;;
20844;SDS011;10583;49.084;8.646;2023-02-28T02:53:18;4.40;;;4.40;;
20844;SDS011;10583;49.084;8.646;2023-02-28T02:55:50;4.57;;;4.57;;
20844;SDS011;10583;49.084;8.646;2023-02-28T02:58:20;4.70;;;4.70;;
20844;SDS011;10583;49.084;8.646;2023-02-28T03:00:52;4.53;;;4.53;;
20844;SDS011;10583;49.084;8.646;2023-02-28T03:03:20;4.87;;;4.87;;
20844;SDS011;10583;49.084;8.646;2023-02-28T03:05:55;4.77;;;4.77;;
20844;SDS011;10583;49.084;8.646;2023-02-28T03:08:22;4.77;;;4.77;;
20844;SDS011;10583;49.084;8.646;2023-02-28T03:10:50;4.60;;;4.60;;
20844;SDS011;10583;49.084;8.646;2023-02-28T03:13:26;4.60;;;4.60;;
20844;SDS011;10583;49.084;8.646;2023-02-28T03:16:28;4.43;;;4.43;;
20844;SDS011;10583;49.084;8.646;2023-02-28T03:19:03;5.00;;;5.00;;
20844;SDS011;10583;49.084;8.646;2023-02-28T03:21:46;4.60;;;4.60;;
20844;SDS011;10583;49.084;8.646;2023-02-28T03:24:21;4.53;;;4.53;;
20844;SDS011;10583;49.084;8.646;2023-02-28T03:26:58;5.13;;;5.13;;
20844;SDS011;10583;49.084;8.646;2023-02-28T03:29:32;5.17;;;5.17;;
20844;SDS011;10583;49.084;8.646;2023-02-28T03:32:03;4.50;;;4.50;;
20844;SDS011;10583;49.084;8.646;2023-02-28T03:34:37;4.60;;;4.60;;
20844;SDS011;10583;49.084;8.646;2023-02-28T03:37:08;4.77;;;4.77;;
20844;SDS011;10583;49.084;8.646;2023-02-28T03:39:39;4.53;;;4.53;;
20844;SDS011;10583;49.084;8.646;2023-02-28T03:42:10;4.97;;;4.97;;
20844;SDS011;10583;49.084;8.646;2023-02-28T03:44:41;4.83;;;4.83;;
20844;SDS011;10583;49.084;8.646;2023-02-28T03:47:11;4.90;;;4.90;;
20844;SDS011;10583;49.084;8.646;2023-02-28T03:49:42;4.80;;;4.80;;
20844;SDS011;10583;49.084;8.646;2023-02-28T03:52:15;4.57;;;4.57;;
20844;SDS011;10583;49.084;8.646;2023-02-28T03:54:45;4.53;;;4.53;;
20844;SDS011;10583;49.084;8.646;2023-02-28T03:57:15;5.40;;;5.40;;
20844;SDS011;10583;49.084;8.646;2023-02-28T03:59:49;5.00;;;5.00;;
20844;SDS011;10583;49.084;8.646;2023-02-28T04:02:22;4.77;;;4.77;;
20844;SDS011;10583;49.084;8.646;2023-02-28T04:04:49;5.27;;;5.27;;
20844;SDS011;10583;49.084;8.646;2023-02-28T04:07:17;4.37;;;4.37;;
20844;SDS011;10583;49.084;8.646;2023-02-28T04:09:44;5.53;;;5.53;;
20844;SDS011;10583;49.084;8.646;2023-02-28T04:12:11;4.80;;;4.80;;
20844;SDS011;10583;49.084;8.646;2023-02-28T04:14:37;4.97;;;4.97;;
20844;SDS011;10583;49.084;8.646;2023-02-28T04:17:04;5.30;;;5.30;;
20844;SDS011;10583;49.084;8.646;2023-02-28T04:19:31;4.87;;;4.87;;
20844;SDS011;10583;49.084;8.646;2023-02-28T04:21:57;5.53;;;5.53;;
20844;SDS011;10583;49.084;8.646;2023-02-28T04:24:26;5.43;;;5.43;;
20844;SDS011;10583;49.084;8.646;2023-02-28T04:26:54;5.43;;;5.43;;
20844;SDS011;10583;49.084;8.646;2023-02-28T04:29:23;5.23;;;5.23;;
20844;SDS011;10583;49.084;8.646;2023-02-28T04:31:52;5.43;;;5.43;;
20844;SDS011;10583;49.084;8.646;2023-02-28T04:34:19;5.37;;;5.37;;
20844;SDS011;10583;49.084;8.646;2023-02-28T04:36:46;5.30;;;5.30;;
20844;SDS011;10583;49.084;8.646;2023-02-28T04:39:15;5.53;;;5.53;;
20844;SDS011;10583;49.084;8.646;2023-02-28T04:41:44;5.50;;;5.50;;
20844;SDS011;10583;49.084;8.646;2023-02-28T04:44:12;4.90;;;4.90;;
20844;SDS011;10583;49.084;8.646;2023-02-28T04:46:39;5.43;;;5.43;;
20844;SDS011;10583;49.084;8.646;2023-02-28T04:49:06;5.47;;;5.47;;
20844;SDS011;10583;49.084;8.646;2023-02-28T04:51:33;5.83;;;5.83;;
20844;SDS011;10583;49.084;8.646;2023-02-28T04:54:00;5.40;;;5.40;;
20844;SDS011;10583;49.084;8.646;2023-02-28T04:56:27;5.83;;;5.83;;
20844;SDS011;10583;49.084;8.646;2023-02-28T04:58:55;5.63;;;5.63;;
20844;SDS011;10583;49.084;8.646;2023-02-28T05:01:23;5.67;;;5.67;;
20844;SDS011;10583;49.084;8.646;2023-02-28T05:03:51;5.27;;;5.27;;
20844;SDS011;10583;49.084;8.646;2023-02-28T05:06:19;5.63;;;5.63;;
20844;SDS011;10583;49.084;8.646;2023-02-28T05:08:47;5.83;;;5.83;;
20844;SDS011;10583;49.084;8.646;2023-02-28T05:11:15;5.80;;;5.80;;
20844;SDS011;10583;49.084;8.646;2023-02-28T05:13:43;5.63;;;5.63;;
20844;SDS011;10583;49.084;8.646;2023-02-28T05:16:12;5.90;;;5.90;;
20844;SDS011;10583;49.084;8.646;2023-02-28T05:18:39;6.37;;;6.37;;
20844;SDS011;10583;49.084;8.646;2023-02-28T05:21:12;5.83;;;5.83;;
20844;SDS011;10583;49.084;8.646;2023-02-28T05:23:49;6.23;;;6.23;;
20844;SDS011;10583;49.084;8.646;2023-02-28T05:26:16;4.87;;;4.87;;
20844;SDS011;10583;49.084;8.646;2023-02-28T05:28:43;5.40;;;5.40;;
20844;SDS011;10583;49.084;8.646;2023-02-28T05:31:10;5.40;;;5.40;;
20844;SDS011;10583;49.084;8.646;2023-02-28T05:33:38;5.60;;;5.60;;
20844;SDS011;10583;49.084;8.646;2023-02-28T05:36:06;5.77;;;5.77;;
20844;SDS011;10583;49.084;8.646;2023-02-28T05:38:33;5.90;;;5.90;;
20844;SDS011;10583;49.084;8.646;2023-02-28T05:41:00;5.90;;;5.90;;
20844;SDS011;10583;49.084;8.646;2023-02-28T05:43:30;5.93;;;5.93;;
20844;SDS011;10583;49.084;8.646;2023-02-28T05:45:57;5.67;;;5.67;;
20844;SDS011;10583;49.084;8.646;2023-02-28T05:48:25;5.63;;;5.63;;
20844;SDS011;10583;49.084;8.646;2023-02-28T05:50:51;6.50;;;6.50;;
20844;SDS011;10583;49.084;8.646;2023-02-28T05:53:18;5.53;;;5.53;;
20844;SDS011;10583;49.084;8.646;2023-02-28T05:55:45;6.00;;;6.00;;
20844;SDS011;10583;49.084;8.646;2023-02-28T05:58:12;6.00;;;6.00;;
20844;SDS011;10583;49.084;8.646;2023-02-28T06:00:38;5.70;;;5.70;;
20844;SDS011;10583;49.084;8.646;2023-02-28T06:03:05;6.03;;;6.03;;
20844;SDS011;10583;49.084;8.646;2023-02-28T06:05:33;5.90;;;5.90;;
20844;SDS011;10583;49.084;8.646;2023-02-28T06:08:00;6.37;;;6.37;;
20844;SDS011;10583;49.084;8.646;2023-02-28T06:10:26;5.90;;;5.90;;
20844;SDS011;10583;49.084;8.646;2023-02-28T06:12:53;6.77;;;6.77;;
20844;SDS011;10583;49.084;8.646;2023-02-28T06:15:20;5.43;;;5.43;;
20844;SDS011;10583;49.084;8.646;2023-02-28T06:17:47;6.10;;;6.10;;
20844;SDS011;10583;49.084;8.646;2023-02-28T06:20:13;6.10;;;6.10;;
20844;SDS011;10583;49.084;8.646;2023-02-28T06:22:41;6.27;;;6.27;;
20844;SDS011;10583;49.084;8.646;2023-02-28T06:25:09;7.40;;;7.40;;
20844;SDS011;10583;49.084;8.646;2023-02-28T06:27:36;6.03;;;6.03;;
20844;SDS011;10583;49.084;8.646;2023-02-28T06:30:03;8.70;;;8.70;;
20844;SDS011;10583;49.084;8.646;2023-02-28T06:32:33;6.70;;;6.70;;
20844;SDS011;10583;49.084;8.646;2023-02-28T06:35:01;6.80;;;6.80;;
20844;SDS011;10583;49.084;8.646;2023-02-28T06:37:27;6.30;;;6.30;;
20844;SDS011;10583;49.084;8.646;2023-02-28T06:39:55;5.97;;;5.97;;
20844;SDS011;10583;49.084;8.646;2023-02-28T06:42:22;6.40;;;6.40;;
20844;SDS011;10583;49.084;8.646;2023-02-28T06:44:53;6.03;;;6.03;;
20844;SDS011;10583;49.084;8.646;2023-02-28T06:47:20;5.77;;;5.77;;
20844;SDS011;10583;49.084;8.646;2023-02-28T06:49:48;6.10;;;6.10;;
20844;SDS011;10583;49.084;8.646;2023-02-28T06:52:14;6.33;;;6.33;;
20844;SDS011;10583;49.084;8.646;2023-02-28T06:54:41;6.20;;;6.20;;
20844;SDS011;10583;49.084;8.646;2023-02-28T06:57:09;6.60;;;6.60;;
20844;SDS011;10583;49.084;8.646;2023-02-28T06:59:36;5.83;;;5.83;;
20844;SDS011;10583;49.084;8.646;2023-02-28T07:02:02;5.87;;;5.87;;
20844;SDS011;10583;49.084;8.646;2023-02-28T07:04:31;6.07;;;6.07;;
20844;SDS011;10583;49.084;8.646;2023-02-28T07:06:58;6.43;;;6.43;;
20844;SDS011;10583;49.084;8.646;2023-02-28T07:09:24;6.33;;;6.33;;
20844;SDS011;10583;49.084;8.646;2023-02-28T07:11:54;6.60;;;6.60;;
20844;SDS011;10583;49.084;8.646;2023-02-28T07:14:22;6.73;;;6.73;;
20844;SDS011;10583;49.084;8.646;2023-02-28T07:16:49;5.70;;;5.70;;
20844;SDS011;10583;49.084;8.646;2023-02-28T07:19:16;6.00;;;6.00;;
20844;SDS011;10583;49.084;8.646;2023-02-28T07:21:42;6.67;;;6.67;;
20844;SDS011;10583;49.084;8.646;2023-02-28T07:24:10;6.47;;;6.47;;
20844;SDS011;10583;49.084;8.646;2023-02-28T07:26:36;6.90;;;6.90;;
20844;SDS011;10583;49.084;8.646;2023-02-28T07:29:03;6.57;;;6.57;;
20844;SDS011;10583;49.084;8.646;2023-02-28T07:31:31;6.47;;;6.47;;
20844;SDS011;10583;49.084;8.646;2023-02-28T07:33:58;7.10;;;7.10;;
20844;SDS011;10583;49.084;8.646;2023-02-28T07:36:25;7.03;;;7.03;;
20844;SDS011;10583;49.084;8.646;2023-02-28T07:38:52;6.60;;;6.60;;
20844;SDS011;10583;49.084;8.646;2023-02-28T07:41:19;6.50;;;6.43;;
20844;SDS011;10583;49.084;8.646;2023-02-28T07:43:48;6.80;;;6.80;;
20844;SDS011;10583;49.084;8.646;2023-02-28T07:46:15;6.07;;;6.07;;
20844;SDS011;10583;49.084;8.646;2023-02-28T07:48:46;6.40;;;6.40;;
20844;SDS011;10583;49.084;8.646;2023-02-28T07:51:13;6.17;;;6.17;;
20844;SDS011;10583;49.084;8.646;2023-02-28T07:53:40;6.97;;;6.97;;
20844;SDS011;10583;49.084;8.646;2023-02-28T07:56:06;6.70;;;6.70;;
20844;SDS011;10583;49.084;8.646;2023-02-28T07:58:33;6.70;;;6.70;;
20844;SDS011;10583;49.084;8.646;2023-02-28T08:01:04;7.40;;;7.40;;
20844;SDS011;10583;49.084;8.646;2023-02-28T08:03:32;6.57;;;6.57;;
20844;SDS011;10583;49.084;8.646;2023-02-28T08:06:00;6.93;;;6.93;;
20844;SDS011;10583;49.084;8.646;2023-02-28T08:08:28;6.67;;;6.67;;
20844;SDS011;10583;49.084;8.646;2023-02-28T08:10:57;6.80;;;6.80;;
20844;SDS011;10583;49.084;8.646;2023-02-28T08:13:24;6.77;;;6.77;;
20844;SDS011;10583;49.084;8.646;2023-02-28T08:15:52;6.73;;;6.73;;
20844;SDS011;10583;49.084;8.646;2023-02-28T08:18:19;6.83;;;6.83;;
20844;SDS011;10583;49.084;8.646;2023-02-28T08:20:45;6.20;;;6.20;;
20844;SDS011;10583;49.084;8.646;2023-02-28T08:23:14;6.60;;;6.60;;
20844;SDS011;10583;49.084;8.646;2023-02-28T08:25:41;7.20;;;7.20;;
20844;SDS011;10583;49.084;8.646;2023-02-28T08:28:07;7.23;;;7.23;;
20844;SDS011;10583;49.084;8.646;2023-02-28T08:30:34;6.67;;;6.67;;
20844;SDS011;10583;49.084;8.646;2023-02-28T08:33:01;6.80;;;6.80;;
20844;SDS011;10583;49.084;8.646;2023-02-28T08:35:27;7.03;;;7.03;;
20844;SDS011;10583;49.084;8.646;2023-02-28T08:37:54;6.47;;;6.47;;
20844;SDS011;10583;49.084;8.646;2023-02-28T08:40:22;6.87;;;6.87;;
20844;SDS011;10583;49.084;8.646;2023-02-28T08:42:49;6.67;;;6.67;;
20844;SDS011;10583;49.084;8.646;2023-02-28T08:45:16;6.93;;;6.93;;
20844;SDS011;10583;49.084;8.646;2023-02-28T08:47:42;6.70;;;6.70;;
20844;SDS011;10583;49.084;8.646;2023-02-28T08:50:09;7.23;;;7.23;;
20844;SDS011;10583;49.084;8.646;2023-02-28T08:52:37;6.90;;;6.90;;
20844;SDS011;10583;49.084;8.646;2023-02-28T08:55:04;7.07;;;7.07;;
20844;SDS011;10583;49.084;8.646;2023-02-28T08:57:33;7.37;;;7.37;;
20844;SDS011;10583;49.084;8.646;2023-02-28T08:59:59;7.00;;;7.00;;
20844;SDS011;10583;49.084;8.646;2023-02-28T09:02:29;7.47;;;7.47;;
20844;SDS011;10583;49.084;8.646;2023-02-28T09:04:56;7.10;;;7.10;;
20844;SDS011;10583;49.084;8.646;2023-02-28T09:07:23;6.70;;;6.70;;
20844;SDS011;10583;49.084;8.646;2023-02-28T09:09:49;7.03;;;7.03;;
20844;SDS011;10583;49.084;8.646;2023-02-28T09:12:19;7.10;;;7.10;;
20844;SDS011;10583;49.084;8.646;2023-02-28T09:14:47;7.10;;;7.10;;
20844;SDS011;10583;49.084;8.646;2023-02-28T09:17:14;7.17;;;7.17;;
20844;SDS011;10583;49.084;8.646;2023-02-28T09:19:41;7.27;;;7.27;;
20844;SDS011;10583;49.084;8.646;2023-02-28T09:22:08;7.30;;;7.30;;
20844;SDS011;10583;49.084;8.646;2023-02-28T09:24:35;7.30;;;7.30;;
20844;SDS011;10583;49.084;8.646;2023-02-28T09:27:03;7.03;;;7.03;;
20844;SDS011;10583;49.084;8.646;2023-02-28T09:29:29;7.20;;;7.20;;
20844;SDS011;10583;49.084;8.646;2023-02-28T09:31:58;6.57;;;6.57;;
20844;SDS011;10583;49.084;8.646;2023-02-28T09:34:25;7.30;;;7.30;;
20844;SDS011;10583;49.084;8.646;2023-02-28T09:36:52;6.30;;;6.30;;
20844;SDS011;10583;49.084;8.646;2023-02-28T09:39:20;6.93;;;6.93;;
20844;SDS011;10583;49.084;8.646;2023-02-28T09:41:48;6.87;;;6.87;;
20844;SDS011;10583;49.084;8.646;2023-02-28T09:44:19;7.13;;;7.13;;
20844;SDS011;10583;49.084;8.646;2023-02-28T09:46:51;7.53;;;7.53;;
20844;SDS011;10583;49.084;8.646;2023-02-28T09:49:24;7.23;;;7.23;;
20844;SDS011;10583;49.084;8.646;2023-02-28T09:51:55;7.20;;;7.20;;
20844;SDS011;10583;49.084;8.646;2023-02-28T09:54:26;7.00;;;7.00;;
20844;SDS011;10583;49.084;8.646;2023-02-28T09:56:56;6.87;;;6.87;;
20844;SDS011;10583;49.084;8.646;2023-02-28T09:59:29;7.60;;;7.60;;
20844;SDS011;10583;49.084;8.646;2023-02-28T10:02:10;7.30;;;7.30;;
20844;SDS011;10583;49.084;8.646;2023-02-28T10:04:46;6.90;;;6.90;;
20844;SDS011;10583;49.084;8.646;2023-02-28T10:07:21;6.90;;;6.90;;
20844;SDS011;10583;49.084;8.646;2023-02-28T10:09:59;7.50;;;7.50;;
20844;SDS011;10583;49.084;8.646;2023-02-28T10:12:30;8.13;;;8.13;;
20844;SDS011;10583;49.084;8.646;2023-02-28T10:14:58;7.90;;;7.90;;
20844;SDS011;10583;49.084;8.646;2023-02-28T10:17:28;7.17;;;7.17;;
20844;SDS011;10583;49.084;8.646;2023-02-28T10:20:05;7.80;;;7.80;;
20844;SDS011;10583;49.084;8.646;2023-02-28T10:22:39;7.30;;;7.30;;
20844;SDS011;10583;49.084;8.646;2023-02-28T10:25:17;7.37;;;7.37;;
20844;SDS011;10583;49.084;8.646;2023-02-28T10:27:45;7.40;;;7.40;;
20844;SDS011;10583;49.084;8.646;2023-02-28T10:30:13;7.73;;;7.73;;
20844;SDS011;10583;49.084;8.646;2023-02-28T10:32:40;7.70;;;7.70;;
20844;SDS011;10583;49.084;8.646;2023-02-28T10:35:15;7.50;;;7.50;;
20844;SDS011;10583;49.084;8.646;2023-02-28T10:37:45;8.13;;;8.13;;
20844;SDS011;10583;49.084;8.646;2023-02-28T10:40:25;7.60;;;7.60;;
20844;SDS011;10583;49.084;8.646;2023-02-28T10:42:55;7.57;;;7.57;;
20844;SDS011;10583;49.084;8.646;2023-02-28T10:45:22;8.03;;;8.03;;
20844;SDS011;10583;49.084;8.646;2023-02-28T10:47:51;7.93;;;7.93;;
20844;SDS011;10583;49.084;8.646;2023-02-28T10:50:28;8.37;;;8.37;;
20844;SDS011;10583;49.084;8.646;2023-02-28T10:53:05;8.20;;;8.20;;
20844;SDS011;10583;49.084;8.646;2023-02-28T10:55:42;8.37;;;8.37;;
20844;SDS011;10583;49.084;8.646;2023-02-28T10:58:20;8.20;;;8.20;;
20844;SDS011;10583;49.084;8.646;2023-02-28T11:00:48;7.90;;;7.90;;
20844;SDS011;10583;49.084;8.646;2023-02-28T11:03:25;7.90;;;7.90;;
20844;SDS011;10583;49.084;8.646;2023-02-28T11:05:57;7.80;;;7.80;;
20844;SDS011;10583;49.084;8.646;2023-02-28T11:08:24;8.30;;;8.30;;
20844;SDS011;10583;49.084;8.646;2023-02-28T11:10:55;8.40;;;8.40;;
20844;SDS011;10583;49.084;8.646;2023-02-28T11:13:25;8.30;;;8.30;;
20844;SDS011;10583;49.084;8.646;2023-02-28T11:15:56;8.43;;;8.43;;
20844;SDS011;10583;49.084;8.646;2023-02-28T11:18:26;8.43;;;8.43;;
20844;SDS011;10583;49.084;8.646;2023-02-28T11:20:55;8.00;;;8.00;;
20844;SDS011;10583;49.084;8.646;2023-02-28T11:23:26;8.87;;;8.87;;
20844;SDS011;10583;49.084;8.646;2023-02-28T11:25:56;9.27;;;9.27;;
20844;SDS011;10583;49.084;8.646;2023-02-28T11:28:27;8.23;;;8.23;;
20844;SDS011;10583;49.084;8.646;2023-02-28T11:31:08;8.13;;;8.13;;
20844;SDS011;10583;49.084;8.646;2023-02-28T11:33:44;8.17;;;8.17;;
20844;SDS011;10583;49.084;8.646;2023-02-28T11:36:16;9.00;;;9.00;;
20844;SDS011;10583;49.084;8.646;2023-02-28T11:38:45;7.87;;;7.87;;
20844;SDS011;10583;49.084;8.646;2023-02-28T11:41:21;9.03;;;9.03;;
20844;SDS011;10583;49.084;8.646;2023-02-28T11:44:04;7.90;;;7.90;;
20844;SDS011;10583;49.084;8.646;2023-02-28T11:46:41;8.73;;;8.73;;
20844;SDS011;10583;49.084;8.646;2023-02-28T11:49:17;8.63;;;8.63;;
20844;SDS011;10583;49.084;8.646;2023-02-28T11:51:59;8.00;;;8.00;;
20844;SDS011;10583;49.084;8.646;2023-02-28T11:54:47;8.50;;;8.50;;
20844;SDS011;10583;49.084;8.646;2023-02-28T11:57:50;8.13;;;8.13;;
20844;SDS011;10583;49.084;8.646;2023-02-28T12:00:29;8.30;;;8.30;;
20844;SDS011;10583;49.084;8.646;2023-02-28T12:03:10;8.47;;;8.47;;
20844;SDS011;10583;49.084;8.646;2023-02-28T12:05:45;8.20;;;8.20;;
20844;SDS011;10583;49.084;8.646;2023-02-28T12:08:25;8.23;;;8.23;;
20844;SDS011;10583;49.084;8.646;2023-02-28T12:11:01;8.40;;;8.40;;
20844;SDS011;10583;49.084;8.646;2023-02-28T12:13:37;8.40;;;8.40;;
20844;SDS011;10583;49.084;8.646;2023-02-28T12:19:09;8.27;;;8.27;;
20844;SDS011;10583;49.084;8.646;2023-02-28T12:21:48;8.13;;;8.13;;
20844;SDS011;10583;49.084;8.646;2023-02-28T12:24:37;9.13;;;9.13;;
20844;SDS011;10583;49.084;8.646;2023-02-28T12:27:14;9.50;;;9.50;;
20844;SDS011;10583;49.084;8.646;2023-02-28T12:29:46;8.77;;;8.77;;
20844;SDS011;10583;49.084;8.646;2023-02-28T12:32:18;8.27;;;8.27;;
20844;SDS011;10583;49.084;8.646;2023-02-28T12:34:50;8.70;;;8.70;;
20844;SDS011;10583;49.084;8.646;2023-02-28T12:37:22;8.17;;;8.17;;
20844;SDS011;10583;49.084;8.646;2023-02-28T12:39:56;8.07;;;8.07;;
20844;SDS011;10583;49.084;8.646;2023-02-28T12:42:31;9.20;;;9.20;;
20844;SDS011;10583;49.084;8.646;2023-02-28T12:45:04;8.73;;;8.73;;
20844;SDS011;10583;49.084;8.646;2023-02-28T12:47:34;9.30;;;9.30;;
20844;SDS011;10583;49.084;8.646;2023-02-28T12:50:02;8.43;;;8.43;;
20844;SDS011;10583;49.084;8.646;2023-02-28T12:52:34;7.90;;;7.90;;
20844;SDS011;10583;49.084;8.646;2023-02-28T12:55:11;8.83;;;8.83;;
20844;SDS011;10583;49.084;8.646;2023-02-28T12:57:41;8.03;;;8.03;;
20844;SDS011;10583;49.084;8.646;2023-02-28T13:00:15;8.20;;;8.20;;
20844;SDS011;10583;49.084;8.646;2023-02-28T13:11:41;8.93;;;8.93;;
20844;SDS011;10583;49.084;8.646;2023-02-28T13:14:21;8.33;;;8.33;;
20844;SDS011;10583;49.084;8.646;2023-02-28T13:16:57;8.57;;;8.57;;
20844;SDS011;10583;49.084;8.646;2023-02-28T13:19:36;8.70;;;8.70;;
20844;SDS011;10583;49.084;8.646;2023-02-28T13:22:15;9.00;;;9.00;;
20844;SDS011;10583;49.084;8.646;2023-02-28T13:24:45;9.33;;;9.33;;
20844;SDS011;10583;49.084;8.646;2023-02-28T13:30:02;9.60;;;9.60;;
20844;SDS011;10583;49.084;8.646;2023-02-28T13:33:23;8.97;;;8.97;;
20844;SDS011;10583;49.084;8.646;2023-02-28T13:38:49;8.90;;;8.90;;
20844;SDS011;10583;49.084;8.646;2023-02-28T13:44:11;9.23;;;9.23;;
20844;SDS011;10583;49.084;8.646;2023-02-28T13:49:38;8.93;;;8.93;;
20844;SDS011;10583;49.084;8.646;2023-02-28T13:52:07;9.60;;;9.60;;
20844;SDS011;10583;49.084;8.646;2023-02-28T13:54:43;9.03;;;9.03;;
20844;SDS011;10583;49.084;8.646;2023-02-28T13:57:43;9.13;;;9.13;;
20844;SDS011;10583;49.084;8.646;2023-02-28T14:00:23;9.10;;;9.10;;
20844;SDS011;10583;49.084;8.646;2023-02-28T14:03:08;9.13;;;9.13;;
20844;SDS011;10583;49.084;8.646;2023-02-28T14:05:59;8.87;;;8.87;;
20844;SDS011;10583;49.084;8.646;2023-02-28T14:08:35;9.27;;;9.27;;
20844;SDS011;10583;49.084;8.646;2023-02-28T14:11:04;9.10;;;9.10;;
20844;SDS011;10583;49.084;8.646;2023-02-28T14:13:39;8.90;;;8.90;;
20844;SDS011;10583;49.084;8.646;2023-02-28T14:16:11;9.90;;;9.90;;
20844;SDS011;10583;49.084;8.646;2023-02-28T14:18:40;9.30;;;9.30;;
20844;SDS011;10583;49.084;8.646;2023-02-28T14:21:14;9.60;;;9.60;;
20844;SDS011;10583;49.084;8.646;2023-02-28T14:29:47;9.83;;;9.83;;
20844;SDS011;10583;49.084;8.646;2023-02-28T14:32:32;10.83;;;10.83;;
20844;SDS011;10583;49.084;8.646;2023-02-28T14:35:02;9.90;;;9.90;;
20844;SDS011;10583;49.084;8.646;2023-02-28T14:37:42;9.87;;;9.87;;
20844;SDS011;10583;49.084;8.646;2023-02-28T14:40:12;10.40;;;10.40;;
20844;SDS011;10583;49.084;8.646;2023-02-28T14:42:45;9.70;;;9.70;;
20844;SDS011;10583;49.084;8.646;2023-02-28T14:45:17;9.57;;;9.57;;
20844;SDS011;10583;49.084;8.646;2023-02-28T14:47:47;10.20;;;10.20;;
20844;SDS011;10583;49.084;8.646;2023-02-28T14:50:19;10.73;;;10.73;;
20844;SDS011;10583;49.084;8.646;2023-02-28T14:52:50;10.17;;;10.17;;
20844;SDS011;10583;49.084;8.646;2023-02-28T14:55:18;10.47;;;10.47;;
20844;SDS011;10583;49.084;8.646;2023-02-28T14:57:50;10.00;;;10.00;;
20844;SDS011;10583;49.084;8.646;2023-02-28T15:00:20;9.93;;;9.87;;
20844;SDS011;10583;49.084;8.646;2023-02-28T15:02:50;9.57;;;9.57;;
20844;SDS011;10583;49.084;8.646;2023-02-28T15:05:25;10.00;;;10.00;;
20844;SDS011;10583;49.084;8.646;2023-02-28T15:08:05;9.70;;;9.70;;
20844;SDS011;10583;49.084;8.646;2023-02-28T15:10:36;10.23;;;10.23;;
20844;SDS011;10583;49.084;8.646;2023-02-28T15:13:05;9.30;;;9.30;;
20844;SDS011;10583;49.084;8.646;2023-02-28T15:15:39;8.27;;;8.27;;
20844;SDS011;10583;49.084;8.646;2023-02-28T15:18:13;9.23;;;9.23;;
20844;SDS011;10583;49.084;8.646;2023-02-28T15:20:46;10.33;;;10.33;;
20844;SDS011;10583;49.084;8.646;2023-02-28T15:23:14;11.57;;;11.57;;
20844;SDS011;10583;49.084;8.646;2023-02-28T15:25:42;10.33;;;10.33;;
20844;SDS011;10583;49.084;8.646;2023-02-28T15:28:11;10.70;;;10.70;;
20844;SDS011;10583;49.084;8.646;2023-02-28T15:30:50;10.37;;;10.37;;
20844;SDS011;10583;49.084;8.646;2023-02-28T15:33:20;9.43;;;9.43;;
20844;SDS011;10583;49.084;8.646;2023-02-28T15:35:49;10.17;;;10.17;;
20844;SDS011;10583;49.084;8.646;2023-02-28T15:38:17;9.57;;;9.57;;
20844;SDS011;10583;49.084;8.646;2023-02-28T15:40:49;9.63;;;9.63;;
20844;SDS011;10583;49.084;8.646;2023-02-28T15:43:26;9.87;;;9.87;;
20844;SDS011;10583;49.084;8.646;2023-02-28T15:45:55;10.27;;;10.27;;
20844;SDS011;10583;49.084;8.646;2023-02-28T15:48:26;10.63;;;10.63;;
20844;SDS011;10583;49.084;8.646;2023-02-28T15:50:55;11.00;;;11.00;;